sensor_id;sensor_type;location;lat;lon;timestamp;temperature;humidity
8105;DHT22;4095;48.942;9.104;2022-11-25T00:01:07;4.70;99.90
8105;DHT22;4095;48.942;9.104;2022-11-25T00:03:34;4.70;99.90
8105;DHT22;4095;48.942;9.104;2022-11-25T00:06:17;4.70;99.90
8105;DHT22;4095;48.942;9.104;2022-11-25T00:08:45;4.80;99.90
8105;DHT22;4095;48.942;9.104;2022-11-25T00:11:12;4.80;99.90
8105;DHT22;4095;48.942;9.104;2022-11-25T00:13:38;4.80;99.90
8105;DHT22;4095;48.942;9.104;2022-11-25T00:16:10;4.80;99.90
8105;DHT22;4095;48.942;9.104;2022-11-25T00:18:36;4.80;99.90
8105;DHT22;4095;48.942;9.104;2022-11-25T00:21:06;4.80;99.90
8105;DHT22;4095;48.942;9.104;2022-11-25T00:23:32;4.70;99.90
8105;DHT22;4095;48.942;9.104;2022-11-25T00:26:05;4.70;99.90
8105;DHT22;4095;48.942;9.104;2022-11-25T00:28:31;4.70;99.90
8105;DHT22;4095;48.942;9.104;2022-11-25T00:31:11;4.60;99.90
8105;DHT22;4095;48.942;9.104;2022-11-25T00:33:37;4.60;99.90
8105;DHT22;4095;48.942;9.104;2022-11-25T00:36:04;4.60;99.90
8105;DHT22;4095;48.942;9.104;2022-11-25T00:38:30;4.60;99.90
8105;DHT22;4095;48.942;9.104;2022-11-25T00:40:55;4.60;99.90
8105;DHT22;4095;48.942;9.104;2022-11-25T00:43:40;4.50;99.90
8105;DHT22;4095;48.942;9.104;2022-11-25T00:46:24;4.60;99.90
8105;DHT22;4095;48.942;9.104;2022-11-25T00:48:49;4.50;99.90
8105;DHT22;4095;48.942;9.104;2022-11-25T00:51:15;4.50;99.90
8105;DHT22;4095;48.942;9.104;2022-11-25T00:53:40;4.50;99.90
8105;DHT22;4095;48.942;9.104;2022-11-25T00:56:06;4.60;99.90
8105;DHT22;4095;48.942;9.104;2022-11-25T00:58:41;4.50;99.90
8105;DHT22;4095;48.942;9.104;2022-11-25T01:01:07;4.60;99.90
8105;DHT22;4095;48.942;9.104;2022-11-25T01:03:34;4.50;99.90
8105;DHT22;4095;48.942;9.104;2022-11-25T01:06:03;4.60;99.90
8105;DHT22;4095;48.942;9.104;2022-11-25T01:08:30;4.60;99.90
8105;DHT22;4095;48.942;9.104;2022-11-25T01:11:05;4.60;99.90
8105;DHT22;4095;48.942;9.104;2022-11-25T01:13:32;4.60;99.90
8105;DHT22;4095;48.942;9.104;2022-11-25T01:16:01;4.60;99.90
8105;DHT22;4095;48.942;9.104;2022-11-25T01:18:27;4.60;99.90
8105;DHT22;4095;48.942;9.104;2022-11-25T01:20:53;4.60;99.90
8105;DHT22;4095;48.942;9.104;2022-11-25T01:23:19;4.70;99.90
8105;DHT22;4095;48.942;9.104;2022-11-25T01:25:44;4.70;99.90
8105;DHT22;4095;48.942;9.104;2022-11-25T01:28:10;4.70;99.90
8105;DHT22;4095;48.942;9.104;2022-11-25T01:30:35;4.80;99.90
8105;DHT22;4095;48.942;9.104;2022-11-25T01:33:01;4.80;99.90
8105;DHT22;4095;48.942;9.104;2022-11-25T01:35:26;4.90;99.90
8105;DHT22;4095;48.942;9.104;2022-11-25T01:37:52;4.90;99.90
8105;DHT22;4095;48.942;9.104;2022-11-25T01:40:18;4.90;99.90
8105;DHT22;4095;48.942;9.104;2022-11-25T01:42:45;4.90;99.90
8105;DHT22;4095;48.942;9.104;2022-11-25T01:45:33;5.00;99.90
8105;DHT22;4095;48.942;9.104;2022-11-25T01:48:04;5.00;99.90
8105;DHT22;4095;48.942;9.104;2022-11-25T01:50:31;5.00;99.90
8105;DHT22;4095;48.942;9.104;2022-11-25T01:52:59;5.10;99.90
8105;DHT22;4095;48.942;9.104;2022-11-25T01:55:29;5.00;99.90
8105;DHT22;4095;48.942;9.104;2022-11-25T01:57:57;5.00;99.90
8105;DHT22;4095;48.942;9.104;2022-11-25T02:00:24;5.10;99.90
8105;DHT22;4095;48.942;9.104;2022-11-25T02:02:51;5.10;99.90
8105;DHT22;4095;48.942;9.104;2022-11-25T02:05:21;5.10;99.90
8105;DHT22;4095;48.942;9.104;2022-11-25T02:07:50;5.10;99.90
8105;DHT22;4095;48.942;9.104;2022-11-25T02:10:23;5.10;99.90
8105;DHT22;4095;48.942;9.104;2022-11-25T02:12:50;5.10;99.90
8105;DHT22;4095;48.942;9.104;2022-11-25T02:15:16;5.00;99.90
8105;DHT22;4095;48.942;9.104;2022-11-25T02:17:43;5.00;99.90
8105;DHT22;4095;48.942;9.104;2022-11-25T02:20:20;5.00;99.90
8105;DHT22;4095;48.942;9.104;2022-11-25T02:25:37;4.90;99.90
8105;DHT22;4095;48.942;9.104;2022-11-25T02:30:35;5.00;99.90
8105;DHT22;4095;48.942;9.104;2022-11-25T02:33:01;5.00;99.90
8105;DHT22;4095;48.942;9.104;2022-11-25T02:35:33;5.00;99.90
8105;DHT22;4095;48.942;9.104;2022-11-25T02:38:25;4.90;99.90
8105;DHT22;4095;48.942;9.104;2022-11-25T02:41:05;5.00;99.90
8105;DHT22;4095;48.942;9.104;2022-11-25T02:43:32;5.00;99.90
8105;DHT22;4095;48.942;9.104;2022-11-25T02:46:00;5.00;99.90
8105;DHT22;4095;48.942;9.104;2022-11-25T02:48:28;5.00;99.90
8105;DHT22;4095;48.942;9.104;2022-11-25T02:50:54;5.00;99.90
8105;DHT22;4095;48.942;9.104;2022-11-25T02:53:20;4.90;99.90
8105;DHT22;4095;48.942;9.104;2022-11-25T02:55:45;5.00;99.90
8105;DHT22;4095;48.942;9.104;2022-11-25T02:58:12;5.00;99.90
8105;DHT22;4095;48.942;9.104;2022-11-25T03:00:38;4.90;99.90
8105;DHT22;4095;48.942;9.104;2022-11-25T03:03:03;4.90;99.90
8105;DHT22;4095;48.942;9.104;2022-11-25T03:05:29;4.90;99.90
8105;DHT22;4095;48.942;9.104;2022-11-25T03:07:55;4.90;99.90
8105;DHT22;4095;48.942;9.104;2022-11-25T03:10:20;4.90;99.90
8105;DHT22;4095;48.942;9.104;2022-11-25T03:12:46;4.90;99.90
8105;DHT22;4095;48.942;9.104;2022-11-25T03:15:12;5.00;99.90
8105;DHT22;4095;48.942;9.104;2022-11-25T03:17:37;5.00;99.90
8105;DHT22;4095;48.942;9.104;2022-11-25T03:20:05;5.00;99.90
8105;DHT22;4095;48.942;9.104;2022-11-25T03:22:31;5.00;99.90
8105;DHT22;4095;48.942;9.104;2022-11-25T03:24:56;5.00;99.90
8105;DHT22;4095;48.942;9.104;2022-11-25T03:27:22;5.10;99.90
8105;DHT22;4095;48.942;9.104;2022-11-25T03:29:48;5.10;99.90
8105;DHT22;4095;48.942;9.104;2022-11-25T03:32:14;5.10;99.90
8105;DHT22;4095;48.942;9.104;2022-11-25T03:34:39;5.20;99.90
8105;DHT22;4095;48.942;9.104;2022-11-25T03:37:05;5.20;99.90
8105;DHT22;4095;48.942;9.104;2022-11-25T03:39:31;5.20;99.90
8105;DHT22;4095;48.942;9.104;2022-11-25T03:41:57;5.20;99.90
8105;DHT22;4095;48.942;9.104;2022-11-25T03:44:22;5.30;99.90
8105;DHT22;4095;48.942;9.104;2022-11-25T03:46:48;5.30;99.90
8105;DHT22;4095;48.942;9.104;2022-11-25T03:49:14;5.30;99.90
8105;DHT22;4095;48.942;9.104;2022-11-25T03:51:39;5.30;99.90
8105;DHT22;4095;48.942;9.104;2022-11-25T03:54:05;5.30;99.90
8105;DHT22;4095;48.942;9.104;2022-11-25T03:56:31;5.30;99.90
8105;DHT22;4095;48.942;9.104;2022-11-25T03:58:57;5.30;99.90
8105;DHT22;4095;48.942;9.104;2022-11-25T04:01:22;5.20;99.90
8105;DHT22;4095;48.942;9.104;2022-11-25T04:03:48;5.30;99.90
8105;DHT22;4095;48.942;9.104;2022-11-25T04:06:13;5.30;99.90
8105;DHT22;4095;48.942;9.104;2022-11-25T04:08:40;5.20;99.90
8105;DHT22;4095;48.942;9.104;2022-11-25T04:11:06;5.20;99.90
8105;DHT22;4095;48.942;9.104;2022-11-25T04:13:31;5.20;99.90
8105;DHT22;4095;48.942;9.104;2022-11-25T04:15:57;5.20;99.90
8105;DHT22;4095;48.942;9.104;2022-11-25T04:18:22;5.20;99.90
8105;DHT22;4095;48.942;9.104;2022-11-25T04:20:48;5.20;99.90
8105;DHT22;4095;48.942;9.104;2022-11-25T04:23:14;5.10;99.90
8105;DHT22;4095;48.942;9.104;2022-11-25T04:25:39;5.10;99.90
8105;DHT22;4095;48.942;9.104;2022-11-25T04:28:05;5.20;99.90
8105;DHT22;4095;48.942;9.104;2022-11-25T04:30:31;5.20;99.90
8105;DHT22;4095;48.942;9.104;2022-11-25T04:32:56;5.20;99.90
8105;DHT22;4095;48.942;9.104;2022-11-25T04:35:22;5.20;99.90
8105;DHT22;4095;48.942;9.104;2022-11-25T04:37:48;5.20;99.90
8105;DHT22;4095;48.942;9.104;2022-11-25T04:40:13;5.20;99.90
8105;DHT22;4095;48.942;9.104;2022-11-25T04:42:39;5.20;99.90
8105;DHT22;4095;48.942;9.104;2022-11-25T04:45:14;5.20;99.90
8105;DHT22;4095;48.942;9.104;2022-11-25T04:47:40;5.20;99.90
8105;DHT22;4095;48.942;9.104;2022-11-25T04:50:11;5.30;99.90
8105;DHT22;4095;48.942;9.104;2022-11-25T04:52:37;5.20;99.90
8105;DHT22;4095;48.942;9.104;2022-11-25T04:55:04;5.20;99.90
8105;DHT22;4095;48.942;9.104;2022-11-25T04:57:30;5.20;99.90
8105;DHT22;4095;48.942;9.104;2022-11-25T04:59:55;5.30;99.90
8105;DHT22;4095;48.942;9.104;2022-11-25T05:02:23;5.30;99.90
8105;DHT22;4095;48.942;9.104;2022-11-25T05:04:52;5.30;99.90
8105;DHT22;4095;48.942;9.104;2022-11-25T05:07:19;5.30;99.90
8105;DHT22;4095;48.942;9.104;2022-11-25T05:09:45;5.30;99.90
8105;DHT22;4095;48.942;9.104;2022-11-25T05:12:16;5.30;99.90
8105;DHT22;4095;48.942;9.104;2022-11-25T05:14:43;5.30;99.90
8105;DHT22;4095;48.942;9.104;2022-11-25T05:17:16;5.30;99.90
8105;DHT22;4095;48.942;9.104;2022-11-25T05:19:43;5.30;99.90
8105;DHT22;4095;48.942;9.104;2022-11-25T05:22:13;5.30;99.90
8105;DHT22;4095;48.942;9.104;2022-11-25T05:24:39;5.30;99.90
8105;DHT22;4095;48.942;9.104;2022-11-25T05:27:05;5.20;99.90
8105;DHT22;4095;48.942;9.104;2022-11-25T05:29:30;5.20;99.90
8105;DHT22;4095;48.942;9.104;2022-11-25T05:31:56;5.20;99.90
8105;DHT22;4095;48.942;9.104;2022-11-25T05:34:22;5.20;99.90
8105;DHT22;4095;48.942;9.104;2022-11-25T05:36:47;5.10;99.90
8105;DHT22;4095;48.942;9.104;2022-11-25T05:39:13;5.10;99.90
8105;DHT22;4095;48.942;9.104;2022-11-25T05:41:38;5.10;99.90
8105;DHT22;4095;48.942;9.104;2022-11-25T05:44:04;5.10;99.90
8105;DHT22;4095;48.942;9.104;2022-11-25T05:46:30;5.10;99.90
8105;DHT22;4095;48.942;9.104;2022-11-25T05:48:56;5.00;99.90
8105;DHT22;4095;48.942;9.104;2022-11-25T05:51:23;5.00;99.90
8105;DHT22;4095;48.942;9.104;2022-11-25T05:53:49;5.00;99.90
8105;DHT22;4095;48.942;9.104;2022-11-25T05:56:14;5.00;99.90
8105;DHT22;4095;48.942;9.104;2022-11-25T05:58:40;5.00;99.90
8105;DHT22;4095;48.942;9.104;2022-11-25T06:01:10;5.00;99.90
8105;DHT22;4095;48.942;9.104;2022-11-25T06:03:36;5.00;99.90
8105;DHT22;4095;48.942;9.104;2022-11-25T06:06:03;4.90;99.90
8105;DHT22;4095;48.942;9.104;2022-11-25T06:08:29;4.90;99.90
8105;DHT22;4095;48.942;9.104;2022-11-25T06:10:55;4.90;99.90
8105;DHT22;4095;48.942;9.104;2022-11-25T06:13:21;4.90;99.90
8105;DHT22;4095;48.942;9.104;2022-11-25T06:15:47;4.90;99.90
8105;DHT22;4095;48.942;9.104;2022-11-25T06:18:15;4.80;99.90
8105;DHT22;4095;48.942;9.104;2022-11-25T06:20:40;4.80;99.90
8105;DHT22;4095;48.942;9.104;2022-11-25T06:23:07;4.90;99.90
8105;DHT22;4095;48.942;9.104;2022-11-25T06:25:33;4.90;99.90
8105;DHT22;4095;48.942;9.104;2022-11-25T06:27:59;4.80;99.90
8105;DHT22;4095;48.942;9.104;2022-11-25T06:30:25;4.90;99.90
8105;DHT22;4095;48.942;9.104;2022-11-25T06:32:52;4.80;99.90
8105;DHT22;4095;48.942;9.104;2022-11-25T06:35:18;4.80;99.90
8105;DHT22;4095;48.942;9.104;2022-11-25T06:37:44;4.70;99.90
8105;DHT22;4095;48.942;9.104;2022-11-25T06:40:10;4.70;99.90
8105;DHT22;4095;48.942;9.104;2022-11-25T06:42:37;4.70;99.90
8105;DHT22;4095;48.942;9.104;2022-11-25T06:45:03;4.70;99.90
8105;DHT22;4095;48.942;9.104;2022-11-25T06:47:29;4.60;99.90
8105;DHT22;4095;48.942;9.104;2022-11-25T06:49:54;4.70;99.90
8105;DHT22;4095;48.942;9.104;2022-11-25T06:52:20;4.70;99.90
8105;DHT22;4095;48.942;9.104;2022-11-25T06:54:45;4.60;99.90
8105;DHT22;4095;48.942;9.104;2022-11-25T06:57:15;4.60;99.90
8105;DHT22;4095;48.942;9.104;2022-11-25T06:59:41;4.70;99.90
8105;DHT22;4095;48.942;9.104;2022-11-25T07:02:10;4.70;99.90
8105;DHT22;4095;48.942;9.104;2022-11-25T07:04:36;4.70;99.90
8105;DHT22;4095;48.942;9.104;2022-11-25T07:07:02;4.80;99.90
8105;DHT22;4095;48.942;9.104;2022-11-25T07:09:28;4.80;99.90
8105;DHT22;4095;48.942;9.104;2022-11-25T07:11:54;4.80;99.90
8105;DHT22;4095;48.942;9.104;2022-11-25T07:14:19;4.80;99.90
8105;DHT22;4095;48.942;9.104;2022-11-25T07:16:45;4.80;99.90
8105;DHT22;4095;48.942;9.104;2022-11-25T07:19:13;4.80;99.90
8105;DHT22;4095;48.942;9.104;2022-11-25T07:21:39;4.80;99.90
8105;DHT22;4095;48.942;9.104;2022-11-25T07:24:06;4.90;99.90
8105;DHT22;4095;48.942;9.104;2022-11-25T07:26:34;4.90;99.90
8105;DHT22;4095;48.942;9.104;2022-11-25T07:29:02;5.00;99.90
8105;DHT22;4095;48.942;9.104;2022-11-25T07:31:34;5.10;99.90
8105;DHT22;4095;48.942;9.104;2022-11-25T07:34:08;5.20;99.90
8105;DHT22;4095;48.942;9.104;2022-11-25T07:36:35;5.20;99.90
8105;DHT22;4095;48.942;9.104;2022-11-25T07:39:04;5.30;99.90
8105;DHT22;4095;48.942;9.104;2022-11-25T07:41:30;5.40;99.90
8105;DHT22;4095;48.942;9.104;2022-11-25T07:43:59;5.40;99.90
8105;DHT22;4095;48.942;9.104;2022-11-25T07:46:30;5.50;99.90
8105;DHT22;4095;48.942;9.104;2022-11-25T07:48:59;5.60;99.90
8105;DHT22;4095;48.942;9.104;2022-11-25T07:53:54;5.70;99.90
8105;DHT22;4095;48.942;9.104;2022-11-25T07:56:20;5.70;99.90
8105;DHT22;4095;48.942;9.104;2022-11-25T07:58:47;5.70;99.90
8105;DHT22;4095;48.942;9.104;2022-11-25T08:01:32;5.80;99.90
8105;DHT22;4095;48.942;9.104;2022-11-25T08:03:57;5.80;99.90
8105;DHT22;4095;48.942;9.104;2022-11-25T08:06:25;5.90;99.90
8105;DHT22;4095;48.942;9.104;2022-11-25T08:08:52;5.90;99.90
8105;DHT22;4095;48.942;9.104;2022-11-25T08:11:28;5.90;99.90
8105;DHT22;4095;48.942;9.104;2022-11-25T08:13:54;6.00;99.90
8105;DHT22;4095;48.942;9.104;2022-11-25T08:16:23;6.00;99.90
8105;DHT22;4095;48.942;9.104;2022-11-25T08:18:49;6.10;99.90
8105;DHT22;4095;48.942;9.104;2022-11-25T08:21:16;6.10;99.90
8105;DHT22;4095;48.942;9.104;2022-11-25T08:23:43;6.10;99.90
8105;DHT22;4095;48.942;9.104;2022-11-25T08:26:11;6.20;99.90
8105;DHT22;4095;48.942;9.104;2022-11-25T08:28:39;6.20;99.90
8105;DHT22;4095;48.942;9.104;2022-11-25T08:31:11;6.20;99.90
8105;DHT22;4095;48.942;9.104;2022-11-25T08:33:38;6.30;99.90
8105;DHT22;4095;48.942;9.104;2022-11-25T08:36:04;6.40;99.90
8105;DHT22;4095;48.942;9.104;2022-11-25T08:38:31;6.40;99.90
8105;DHT22;4095;48.942;9.104;2022-11-25T08:40:57;6.50;99.90
8105;DHT22;4095;48.942;9.104;2022-11-25T08:43:23;6.50;99.90
8105;DHT22;4095;48.942;9.104;2022-11-25T08:45:49;6.60;99.90
8105;DHT22;4095;48.942;9.104;2022-11-25T08:48:16;6.60;99.90
8105;DHT22;4095;48.942;9.104;2022-11-25T08:50:48;6.60;99.90
8105;DHT22;4095;48.942;9.104;2022-11-25T08:53:14;6.70;99.90
8105;DHT22;4095;48.942;9.104;2022-11-25T08:55:40;6.70;99.90
8105;DHT22;4095;48.942;9.104;2022-11-25T08:58:06;6.70;99.90
8105;DHT22;4095;48.942;9.104;2022-11-25T09:00:35;6.80;99.90
8105;DHT22;4095;48.942;9.104;2022-11-25T09:03:01;6.90;99.90
8105;DHT22;4095;48.942;9.104;2022-11-25T09:05:27;7.10;99.90
8105;DHT22;4095;48.942;9.104;2022-11-25T09:08:03;7.30;99.90
8105;DHT22;4095;48.942;9.104;2022-11-25T09:10:30;7.40;99.90
8105;DHT22;4095;48.942;9.104;2022-11-25T09:12:56;7.50;99.90
8105;DHT22;4095;48.942;9.104;2022-11-25T09:15:22;7.50;99.90
8105;DHT22;4095;48.942;9.104;2022-11-25T09:17:48;7.60;99.90
8105;DHT22;4095;48.942;9.104;2022-11-25T09:20:13;7.60;99.90
8105;DHT22;4095;48.942;9.104;2022-11-25T09:22:39;7.70;99.90
8105;DHT22;4095;48.942;9.104;2022-11-25T09:25:05;7.80;99.90
8105;DHT22;4095;48.942;9.104;2022-11-25T09:27:31;7.80;99.90
8105;DHT22;4095;48.942;9.104;2022-11-25T09:29:56;7.80;99.90
8105;DHT22;4095;48.942;9.104;2022-11-25T09:32:22;7.80;99.90
8105;DHT22;4095;48.942;9.104;2022-11-25T09:34:48;7.70;99.90
8105;DHT22;4095;48.942;9.104;2022-11-25T09:37:13;7.80;99.90
8105;DHT22;4095;48.942;9.104;2022-11-25T09:39:39;7.80;99.90
8105;DHT22;4095;48.942;9.104;2022-11-25T09:48:40;7.70;99.90
8105;DHT22;4095;48.942;9.104;2022-11-25T09:51:21;7.70;99.90
8105;DHT22;4095;48.942;9.104;2022-11-25T09:53:59;7.80;99.90
8105;DHT22;4095;48.942;9.104;2022-11-25T09:56:42;7.80;99.90
8105;DHT22;4095;48.942;9.104;2022-11-25T09:59:21;8.00;99.90
8105;DHT22;4095;48.942;9.104;2022-11-25T10:01:56;8.00;99.90
8105;DHT22;4095;48.942;9.104;2022-11-25T10:04:29;8.00;99.90
8105;DHT22;4095;48.942;9.104;2022-11-25T10:07:01;8.10;99.90
8105;DHT22;4095;48.942;9.104;2022-11-25T10:09:29;8.10;99.90
8105;DHT22;4095;48.942;9.104;2022-11-25T10:12:27;8.20;99.90
8105;DHT22;4095;48.942;9.104;2022-11-25T10:15:07;8.30;99.90
8105;DHT22;4095;48.942;9.104;2022-11-25T10:17:46;8.30;99.90
8105;DHT22;4095;48.942;9.104;2022-11-25T10:20:28;8.30;99.90
8105;DHT22;4095;48.942;9.104;2022-11-25T10:23:17;8.40;99.90
8105;DHT22;4095;48.942;9.104;2022-11-25T10:25:46;8.40;99.90
8105;DHT22;4095;48.942;9.104;2022-11-25T10:28:16;8.50;99.90
8105;DHT22;4095;48.942;9.104;2022-11-25T10:30:49;8.50;99.90
8105;DHT22;4095;48.942;9.104;2022-11-25T10:36:09;8.50;99.90
8105;DHT22;4095;48.942;9.104;2022-11-25T10:38:43;8.50;99.90
8105;DHT22;4095;48.942;9.104;2022-11-25T10:41:18;8.50;99.90
8105;DHT22;4095;48.942;9.104;2022-11-25T10:43:46;8.50;99.90
8105;DHT22;4095;48.942;9.104;2022-11-25T10:49:28;8.70;99.90
8105;DHT22;4095;48.942;9.104;2022-11-25T10:51:54;8.70;99.90
8105;DHT22;4095;48.942;9.104;2022-11-25T10:54:27;8.70;99.90
8105;DHT22;4095;48.942;9.104;2022-11-25T10:57:03;8.80;99.90
8105;DHT22;4095;48.942;9.104;2022-11-25T10:59:40;8.80;99.90
8105;DHT22;4095;48.942;9.104;2022-11-25T11:07:40;9.00;99.90
8105;DHT22;4095;48.942;9.104;2022-11-25T11:12:37;9.00;99.90
8105;DHT22;4095;48.942;9.104;2022-11-25T11:15:19;8.90;99.90
8105;DHT22;4095;48.942;9.104;2022-11-25T11:17:46;8.90;99.90
8105;DHT22;4095;48.942;9.104;2022-11-25T11:20:27;8.90;99.90
8105;DHT22;4095;48.942;9.104;2022-11-25T11:23:04;8.90;99.90
8105;DHT22;4095;48.942;9.104;2022-11-25T11:25:35;8.90;99.90
8105;DHT22;4095;48.942;9.104;2022-11-25T11:28:02;8.80;99.90
8105;DHT22;4095;48.942;9.104;2022-11-25T11:30:31;8.80;99.90
8105;DHT22;4095;48.942;9.104;2022-11-25T11:33:02;8.80;99.90
8105;DHT22;4095;48.942;9.104;2022-11-25T11:38:03;8.90;99.90
8105;DHT22;4095;48.942;9.104;2022-11-25T11:40:41;8.80;99.90
8105;DHT22;4095;48.942;9.104;2022-11-25T11:52:08;8.90;99.90
8105;DHT22;4095;48.942;9.104;2022-11-25T11:54:52;8.90;99.90
8105;DHT22;4095;48.942;9.104;2022-11-25T12:02:37;8.80;99.90
8105;DHT22;4095;48.942;9.104;2022-11-25T12:05:17;8.90;99.90
8105;DHT22;4095;48.942;9.104;2022-11-25T12:07:53;8.90;99.90
8105;DHT22;4095;48.942;9.104;2022-11-25T12:10:26;8.90;99.90
8105;DHT22;4095;48.942;9.104;2022-11-25T12:37:55;9.00;99.90
8105;DHT22;4095;48.942;9.104;2022-11-25T12:43:24;8.90;99.90
8105;DHT22;4095;48.942;9.104;2022-11-25T12:46:49;9.00;99.90
8105;DHT22;4095;48.942;9.104;2022-11-25T12:48:51;9.00;99.90
8105;DHT22;4095;48.942;9.104;2022-11-25T12:54:02;9.00;99.90
8105;DHT22;4095;48.942;9.104;2022-11-25T12:57:04;9.00;99.90
8105;DHT22;4095;48.942;9.104;2022-11-25T13:00:10;9.10;99.90
8105;DHT22;4095;48.942;9.104;2022-11-25T13:16:32;9.20;99.90
8105;DHT22;4095;48.942;9.104;2022-11-25T13:18:57;9.20;99.90
8105;DHT22;4095;48.942;9.104;2022-11-25T13:21:23;9.30;99.90
8105;DHT22;4095;48.942;9.104;2022-11-25T13:23:57;9.20;99.90
8105;DHT22;4095;48.942;9.104;2022-11-25T13:28:58;9.40;99.90
8105;DHT22;4095;48.942;9.104;2022-11-25T13:31:29;9.40;99.90
8105;DHT22;4095;48.942;9.104;2022-11-25T13:34:20;9.40;99.90
8105;DHT22;4095;48.942;9.104;2022-11-25T13:36:49;9.40;99.90
8105;DHT22;4095;48.942;9.104;2022-11-25T13:39:29;9.50;99.90
8105;DHT22;4095;48.942;9.104;2022-11-25T13:42:18;9.40;99.90
8105;DHT22;4095;48.942;9.104;2022-11-25T13:44:58;9.50;99.90
8105;DHT22;4095;48.942;9.104;2022-11-25T13:49:59;9.60;99.90
8105;DHT22;4095;48.942;9.104;2022-11-25T13:52:37;9.70;99.90
8105;DHT22;4095;48.942;9.104;2022-11-25T13:58:03;10.00;99.90
8105;DHT22;4095;48.942;9.104;2022-11-25T14:05:59;10.10;99.90
8105;DHT22;4095;48.942;9.104;2022-11-25T14:25:48;9.90;99.90
8105;DHT22;4095;48.942;9.104;2022-11-25T14:30:53;9.90;99.90
8105;DHT22;4095;48.942;9.104;2022-11-25T14:33:28;9.90;99.90
8105;DHT22;4095;48.942;9.104;2022-11-25T14:36:00;9.90;99.90
8105;DHT22;4095;48.942;9.104;2022-11-25T14:38:36;9.90;99.90
8105;DHT22;4095;48.942;9.104;2022-11-25T14:41:22;9.90;99.90
8105;DHT22;4095;48.942;9.104;2022-11-25T14:43:54;9.90;99.90
8105;DHT22;4095;48.942;9.104;2022-11-25T14:46:22;9.90;99.90
8105;DHT22;4095;48.942;9.104;2022-11-25T14:49:16;9.90;99.90
8105;DHT22;4095;48.942;9.104;2022-11-25T14:51:41;9.90;99.90
8105;DHT22;4095;48.942;9.104;2022-11-25T14:54:08;9.90;99.90
8105;DHT22;4095;48.942;9.104;2022-11-25T14:56:35;9.80;99.90
8105;DHT22;4095;48.942;9.104;2022-11-25T14:59:02;9.80;99.90
8105;DHT22;4095;48.942;9.104;2022-11-25T15:01:30;9.80;99.90
8105;DHT22;4095;48.942;9.104;2022-11-25T15:04:09;9.80;99.90
8105;DHT22;4095;48.942;9.104;2022-11-25T15:06:39;9.80;99.90
8105;DHT22;4095;48.942;9.104;2022-11-25T15:09:24;9.80;99.90
8105;DHT22;4095;48.942;9.104;2022-11-25T15:11:58;9.80;99.90
8105;DHT22;4095;48.942;9.104;2022-11-25T15:14:31;9.80;99.90
8105;DHT22;4095;48.942;9.104;2022-11-25T15:16:57;9.70;99.90
8105;DHT22;4095;48.942;9.104;2022-11-25T15:19:26;9.80;99.90
8105;DHT22;4095;48.942;9.104;2022-11-25T15:22:01;9.70;99.90
8105;DHT22;4095;48.942;9.104;2022-11-25T15:24:42;9.70;99.90
8105;DHT22;4095;48.942;9.104;2022-11-25T15:29:46;9.70;99.90
8105;DHT22;4095;48.942;9.104;2022-11-25T15:32:19;9.70;99.90
8105;DHT22;4095;48.942;9.104;2022-11-25T15:34:48;9.70;99.90
8105;DHT22;4095;48.942;9.104;2022-11-25T15:37:14;9.70;99.90
8105;DHT22;4095;48.942;9.104;2022-11-25T15:39:40;9.70;99.90
8105;DHT22;4095;48.942;9.104;2022-11-25T15:42:21;9.70;99.90
8105;DHT22;4095;48.942;9.104;2022-11-25T15:44:54;9.70;99.90
8105;DHT22;4095;48.942;9.104;2022-11-25T15:47:30;9.60;99.90
8105;DHT22;4095;48.942;9.104;2022-11-25T15:50:00;9.60;99.90
8105;DHT22;4095;48.942;9.104;2022-11-25T15:52:30;9.50;99.90
8105;DHT22;4095;48.942;9.104;2022-11-25T15:55:02;9.50;99.90
8105;DHT22;4095;48.942;9.104;2022-11-25T15:57:32;9.40;99.90
8105;DHT22;4095;48.942;9.104;2022-11-25T16:05:15;9.30;99.90
8105;DHT22;4095;48.942;9.104;2022-11-25T16:10:32;9.20;99.90
8105;DHT22;4095;48.942;9.104;2022-11-25T16:15:47;9.00;99.90
8105;DHT22;4095;48.942;9.104;2022-11-25T16:18:15;8.90;99.90
8105;DHT22;4095;48.942;9.104;2022-11-25T16:20:48;8.90;99.90
8105;DHT22;4095;48.942;9.104;2022-11-25T16:23:16;8.90;99.90
8105;DHT22;4095;48.942;9.104;2022-11-25T16:28:35;8.90;99.90
8105;DHT22;4095;48.942;9.104;2022-11-25T16:31:01;8.90;99.90
8105;DHT22;4095;48.942;9.104;2022-11-25T16:33:27;8.90;99.90
8105;DHT22;4095;48.942;9.104;2022-11-25T16:35:53;8.90;99.90
8105;DHT22;4095;48.942;9.104;2022-11-25T16:38:18;8.90;99.90
8105;DHT22;4095;48.942;9.104;2022-11-25T16:40:44;8.90;99.90
8105;DHT22;4095;48.942;9.104;2022-11-25T16:43:17;8.80;99.90
8105;DHT22;4095;48.942;9.104;2022-11-25T16:45:47;8.80;99.90
8105;DHT22;4095;48.942;9.104;2022-11-25T16:48:15;8.80;99.90
8105;DHT22;4095;48.942;9.104;2022-11-25T16:50:42;8.80;99.90
8105;DHT22;4095;48.942;9.104;2022-11-25T16:53:08;8.70;99.90
8105;DHT22;4095;48.942;9.104;2022-11-25T16:55:34;8.60;99.90
8105;DHT22;4095;48.942;9.104;2022-11-25T16:58:00;8.60;99.90
8105;DHT22;4095;48.942;9.104;2022-11-25T17:00:26;8.50;99.90
8105;DHT22;4095;48.942;9.104;2022-11-25T17:02:52;8.40;99.90
8105;DHT22;4095;48.942;9.104;2022-11-25T17:05:18;8.30;99.90
8105;DHT22;4095;48.942;9.104;2022-11-25T17:07:44;8.30;99.90
8105;DHT22;4095;48.942;9.104;2022-11-25T17:10:10;8.30;99.90
8105;DHT22;4095;48.942;9.104;2022-11-25T17:12:37;8.30;99.90
8105;DHT22;4095;48.942;9.104;2022-11-25T17:15:05;8.30;99.90
8105;DHT22;4095;48.942;9.104;2022-11-25T17:17:32;8.20;99.90
8105;DHT22;4095;48.942;9.104;2022-11-25T17:19:58;8.10;99.90
8105;DHT22;4095;48.942;9.104;2022-11-25T17:22:26;8.10;99.90
8105;DHT22;4095;48.942;9.104;2022-11-25T17:24:52;8.20;99.90
8105;DHT22;4095;48.942;9.104;2022-11-25T17:27:30;8.20;99.90
8105;DHT22;4095;48.942;9.104;2022-11-25T17:29:58;8.20;99.90
8105;DHT22;4095;48.942;9.104;2022-11-25T17:32:25;8.20;99.90
8105;DHT22;4095;48.942;9.104;2022-11-25T17:34:51;8.20;99.90
8105;DHT22;4095;48.942;9.104;2022-11-25T17:37:22;8.20;99.90
8105;DHT22;4095;48.942;9.104;2022-11-25T17:39:49;8.20;99.90
8105;DHT22;4095;48.942;9.104;2022-11-25T17:42:17;8.20;99.90
8105;DHT22;4095;48.942;9.104;2022-11-25T17:44:44;8.20;99.90
8105;DHT22;4095;48.942;9.104;2022-11-25T17:47:15;8.30;99.90
8105;DHT22;4095;48.942;9.104;2022-11-25T17:49:41;8.30;99.90
8105;DHT22;4095;48.942;9.104;2022-11-25T17:52:07;8.30;99.90
8105;DHT22;4095;48.942;9.104;2022-11-25T17:54:33;8.30;99.90
8105;DHT22;4095;48.942;9.104;2022-11-25T17:56:59;8.30;99.90
8105;DHT22;4095;48.942;9.104;2022-11-25T17:59:30;8.20;99.90
8105;DHT22;4095;48.942;9.104;2022-11-25T18:01:56;8.20;99.90
8105;DHT22;4095;48.942;9.104;2022-11-25T18:04:24;8.20;99.90
8105;DHT22;4095;48.942;9.104;2022-11-25T18:06:50;8.20;99.90
8105;DHT22;4095;48.942;9.104;2022-11-25T18:09:16;8.20;99.90
8105;DHT22;4095;48.942;9.104;2022-11-25T18:11:44;8.20;99.90
8105;DHT22;4095;48.942;9.104;2022-11-25T18:14:15;8.20;99.90
8105;DHT22;4095;48.942;9.104;2022-11-25T18:16:42;8.20;99.90
8105;DHT22;4095;48.942;9.104;2022-11-25T18:19:11;8.20;99.90
8105;DHT22;4095;48.942;9.104;2022-11-25T18:21:38;8.10;99.90
8105;DHT22;4095;48.942;9.104;2022-11-25T18:24:04;8.00;99.90
8105;DHT22;4095;48.942;9.104;2022-11-25T18:26:30;8.00;99.90
8105;DHT22;4095;48.942;9.104;2022-11-25T18:28:57;8.00;99.90
8105;DHT22;4095;48.942;9.104;2022-11-25T18:31:23;8.10;99.90
8105;DHT22;4095;48.942;9.104;2022-11-25T18:33:49;8.00;99.90
8105;DHT22;4095;48.942;9.104;2022-11-25T18:36:14;8.00;99.90
8105;DHT22;4095;48.942;9.104;2022-11-25T18:38:40;7.90;99.90
8105;DHT22;4095;48.942;9.104;2022-11-25T18:41:10;7.90;99.90
8105;DHT22;4095;48.942;9.104;2022-11-25T18:43:38;7.80;99.90
8105;DHT22;4095;48.942;9.104;2022-11-25T18:46:03;7.70;99.90
8105;DHT22;4095;48.942;9.104;2022-11-25T18:48:29;7.70;99.90